EBOS/OST METAR and TAF weather

Enter ICAO airport designator
Station Type Date Time Source
EBOS METAR 2019/02/23 17:20 UTC NOAA

EBOS 231720Z 10007KT CAVOK 10/05 Q1034 NOSIG


Station Type Date Time Source
EBOS Decoded METAR 2019/02/23 17:20 UTC NOAA

Oostende Airport , Belgium (EBOS) 51-12N 002-52E 5M
Feb 23, 2019 - 12:20 PM EST / 2019.02.23 1720 UTC
Wind: from the E (100 degrees) at 8 MPH (7 KT):0
Visibility: greater than 7 mile(s):0
Temperature: 50 F (10 C)
Dew Point: 41 F (5 C)
Relative Humidity: 71%
Pressure (altimeter): 30.53 in. Hg (1034 hPa)
ob: EBOS 231720Z 10007KT CAVOK 10/05 Q1034 NOSIG
cycle: 17

Station Type Date Time Source
EBOS TAF 2019/02/23 18:27 UTC NOAA

TAF EBOS 231710Z 2318/2424 11007KT CAVOK PROB40
TEMPO 2403/2408 2000 BR BCFG


Example: see airport list